FMH weather

Cape Cod Coast Guard Air Station
Falmouth, Massachusetts, United States

Public forecast

Using degrees Fahrenheit for public forecast. Weather courtesy of forecast.io.

METAR (pilot weather report)

Retrieved 2019/07/23 23:35 UTC (0 seconds ago):

KFMH 232335Z 00000KT 10SM BKN050 17/15 A2993 RMK AO2

TAF (pilot weather forecast)

Retrieved 2019/07/23 18:34 UTC (5 hours ago):

TAF KFMH 231731Z 2318/2418 01013G24KT P6SM SCT008 BKN015 FM232200 01007KT P6SM OVC035 FM240200 00000KT P6SM VCSH OVC070 FM240800 04003KT P6SM VCSH OVC025 FM241300 04007KT P6SM BKN035 FM241700 04008KT P6SM BKN090